Time;durP1;ratioP1;P1;durP2;ratioP2;P2;SDS_P1;SDS_P2;PMS_P1;PMS_P2;Temp;Humidity;BMP_temperature;BMP_pressure;BME280_temperature;BME280_humidity;BME280_pressure;Samples;Min_cycle;Max_cycle;Signal;HPM_P1;HPM_P2
2021/12/24 00:55:11;;;;;;;;;;;3.00;70.80;;;;;;5016236;28;20045;-21
2021/12/24 00:57:44;;;;;;;38.13;17.83;;;3.10;71.70;;;;;;5014625;28;20352;-23
2021/12/24 01:00:20;;;;;;;32.42;18.17;;;3.10;70.10;;;;;;5014643;28;20022;-21
2021/12/24 01:02:47;;;;;;;50.30;26.73;;;3.10;69.80;;;;;;5013851;28;20057;-21
2021/12/24 01:05:15;;;;;;;33.10;18.60;;;3.10;70.20;;;;;;5014892;28;20486;-21
2021/12/24 01:07:44;;;;;;;25.73;16.33;;;3.10;70.20;;;;;;5016042;28;20088;-23
2021/12/24 01:10:10;;;;;;;35.72;20.75;;;3.00;70.20;;;;;;5014776;28;20084;-22
2021/12/24 01:12:37;;;;;;;52.00;25.70;;;3.00;70.10;;;;;;5014964;28;20041;-23
2021/12/24 01:15:06;;;;;;;44.20;23.88;;;3.00;70.70;;;;;;5015213;28;20033;-22
2021/12/24 01:20:03;;;;;;;28.65;15.25;;;3.00;70.30;;;;;;5014949;28;20061;-21
2021/12/24 01:25:11;;;;;;;28.25;15.40;;;3.00;70.30;;;;;;5014654;28;20037;-21
2021/12/24 01:27:58;;;;;;;27.85;14.70;;;3.00;70.30;;;;;;5014564;28;20073;-23
2021/12/24 01:38:38;;;;;;;29.85;17.50;;;3.10;69.80;;;;;;5014520;28;20068;-23
2021/12/24 01:41:08;;;;;;;20.40;11.35;;;3.10;69.60;;;;;;5014605;28;20061;-23
2021/12/24 01:43:35;;;;;;;18.45;9.60;;;3.10;69.50;;;;;;5014259;28;20034;-23
2021/12/24 01:46:03;;;;;;;21.90;11.90;;;3.00;69.60;;;;;;5014585;28;20022;-23
2021/12/24 01:48:28;;;;;;;24.30;13.68;;;3.00;69.50;;;;;;5013892;28;20070;-22
2021/12/24 01:50:56;;;;;;;22.75;12.43;;;3.00;69.30;;;;;;5014387;28;20065;-23
2021/12/24 01:53:24;;;;;;;40.05;21.52;;;2.90;69.10;;;;;;5014000;28;20046;-23
2021/12/24 01:55:53;;;;;;;34.20;16.20;;;2.90;69.40;;;;;;5014600;28;20099;-23
2021/12/24 01:58:24;;;;;;;51.58;26.95;;;2.90;69.50;;;;;;5013808;28;20037;-24
2021/12/24 02:00:53;;;;;;;47.97;25.30;;;2.80;69.70;;;;;;5014090;28;20032;-23
2021/12/24 02:03:20;;;;;;;29.40;15.82;;;2.80;70.40;;;;;;5013994;28;20026;-22
2021/12/24 02:05:47;;;;;;;43.40;22.15;;;2.70;70.00;;;;;;5014115;28;20049;-24
2021/12/24 02:08:15;;;;;;;42.05;23.10;;;2.60;70.30;;;;;;5013898;28;20103;-23
2021/12/24 02:10:42;;;;;;;33.35;17.35;;;2.60;70.00;;;;;;5012158;28;20116;-23
2021/12/24 02:13:08;;;;;;;52.63;28.38;;;2.50;70.10;;;;;;5013710;28;20029;-21
2021/12/24 02:16:02;;;;;;;26.17;14.95;;;2.50;70.10;;;;;;5014016;28;20026;-23
2021/12/24 02:28:15;;;;;;;41.83;24.50;;;2.50;70.20;;;;;;5013768;28;20060;-23
2021/12/24 02:29:39;;;;;;;66.47;35.65;;;2.40;71.10;;;;;;5013908;28;20529;-22
2021/12/24 02:32:06;;;;;;;52.53;26.83;;;2.40;71.20;;;;;;5014008;28;20370;-23
2021/12/24 02:34:32;;;;;;;43.65;23.58;;;2.30;71.50;;;;;;5013522;28;20033;-23
2021/12/24 02:36:58;;;;;;;34.78;20.05;;;2.30;71.10;;;;;;5012097;28;20117;-23
2021/12/24 02:39:24;;;;;;;22.15;11.63;;;2.30;70.90;;;;;;5013393;28;20113;-23
2021/12/24 02:41:50;;;;;;;27.13;14.35;;;2.20;70.70;;;;;;5013507;28;20041;-23
2021/12/24 02:44:18;;;;;;;40.72;22.25;;;2.10;70.70;;;;;;5013187;28;20038;-21
2021/12/24 02:47:10;;;;;;;37.63;19.52;;;2.10;70.70;;;;;;5013381;28;20044;-23
2021/12/24 02:55:07;;;;;;;37.47;17.92;;;1.90;71.20;;;;;;5013620;28;20083;-22
2021/12/24 02:57:37;;;;;;;57.88;32.70;;;1.90;70.90;;;;;;5012197;28;20141;-24
2021/12/24 03:00:13;;;;;;;44.63;24.17;;;1.90;71.30;;;;;;5013560;28;20022;-23
2021/12/24 03:02:40;;;;;;;51.90;26.58;;;1.80;71.40;;;;;;5013559;28;20168;-24
2021/12/24 03:05:07;;;;;;;28.63;15.73;;;1.70;71.20;;;;;;5013414;28;20037;-23
2021/12/24 03:07:33;;;;;;;23.15;12.55;;;1.60;71.00;;;;;;5013459;28;20053;-22
2021/12/24 03:10:00;;;;;;;17.85;8.85;;;1.60;71.00;;;;;;5013283;28;20061;-22
2021/12/24 03:12:28;;;;;;;17.80;8.98;;;1.60;71.00;;;;;;5012815;28;20034;-23
2021/12/24 03:14:55;;;;;;;24.25;10.98;;;1.50;71.10;;;;;;5013064;28;20034;-22
2021/12/24 03:17:24;;;;;;;28.95;15.30;;;1.50;71.30;;;;;;5011860;28;20512;-22
2021/12/24 03:19:52;;;;;;;20.20;10.55;;;1.50;71.10;;;;;;5012960;28;20508;-21
2021/12/24 03:25:04;;;;;;;35.70;19.33;;;1.50;71.00;;;;;;5016964;28;20080;-23
2021/12/24 03:27:30;;;;;;;14.88;7.30;;;1.40;70.90;;;;;;5017046;28;20560;-23
2021/12/24 03:29:57;;;;;;;41.75;24.27;;;1.40;70.90;;;;;;5017075;28;20137;-23
2021/12/24 03:32:25;;;;;;;39.75;20.38;;;1.40;70.80;;;;;;5016708;28;20072;-24
2021/12/24 03:34:52;;;;;;;49.88;27.15;;;1.40;71.00;;;;;;5016582;28;20041;-23
2021/12/24 03:37:18;;;;;;;34.15;18.95;;;1.40;71.10;;;;;;5017346;28;20079;-22
2021/12/24 03:39:45;;;;;;;24.55;11.10;;;1.30;71.30;;;;;;5016753;28;20037;-23
2021/12/24 03:42:11;;;;;;;44.85;24.55;;;1.30;71.00;;;;;;5016838;28;20022;-23
2021/12/24 03:44:50;;;;;;;27.92;14.27;;;1.20;71.00;;;;;;5017597;28;20022;-23
2021/12/24 03:47:19;;;;;;;28.23;15.60;;;1.10;71.10;;;;;;5016491;28;20030;-23
2021/12/24 03:50:04;;;;;;;24.13;12.13;;;1.10;71.00;;;;;;5016613;28;20060;-23
2021/12/24 03:54:57;;;;;;;45.92;25.08;;;1.00;71.70;;;;;;5016623;28;20033;-23
2021/12/24 03:57:35;;;;;;;23.40;11.73;;;0.90;71.80;;;;;;5016258;28;20034;-22
2021/12/24 04:00:10;;;;;;;14.35;7.70;;;0.90;71.50;;;;;;5016222;28;20034;-23
2021/12/24 04:02:37;;;;;;;22.42;12.30;;;0.90;71.40;;;;;;5015989;28;20105;-22
2021/12/24 04:05:04;;;;;;;22.30;11.00;;;0.80;71.20;;;;;;5016331;28;20109;-23
2021/12/24 04:07:30;;;;;;;16.55;8.50;;;0.80;71.40;;;;;;5016391;28;20054;-23
2021/12/24 04:10:02;;;;;;;24.33;13.20;;;0.80;71.40;;;;;;5016319;28;20037;-22
2021/12/24 04:12:29;;;;;;;35.17;19.38;;;0.80;71.60;;;;;;5015741;28;20101;-22
2021/12/24 04:14:55;;;;;;;74.68;41.25;;;0.80;72.00;;;;;;5015925;28;20038;-23
2021/12/24 04:17:22;;;;;;;65.57;35.75;;;0.80;72.10;;;;;;5014701;28;20028;-23
2021/12/24 04:25:18;;;;;;;48.47;26.45;;;0.80;72.10;;;;;;5016345;28;20393;-23
2021/12/24 04:27:45;;;;;;;21.65;11.85;;;0.80;72.20;;;;;;5015572;28;20030;-21
2021/12/24 04:30:16;;;;;;;46.17;28.65;;;0.80;71.70;;;;;;5014462;28;20034;-23
2021/12/24 04:38:27;;;;;;;23.67;13.30;;;0.80;73.00;;;;;;5016215;28;20390;-24
2021/12/24 04:52:01;;;;;;;24.77;14.75;;;0.70;71.50;;;;;;5011539;28;20057;-20
2021/12/24 05:05:19;;;;;;;17.38;9.18;;;0.50;71.30;;;;;;5015499;28;20034;-20
2021/12/24 05:10:15;;;;;;;14.32;7.93;;;0.50;71.10;;;;;;5015068;28;20045;-23
2021/12/24 05:12:42;;;;;;;33.28;17.10;;;0.60;71.30;;;;;;5015162;28;20037;-22
2021/12/24 05:15:10;;;;;;;20.13;10.80;;;0.60;71.50;;;;;;5014798;28;20477;-22
2021/12/24 05:23:09;;;;;;;34.88;19.48;;;0.60;71.60;;;;;;5014305;28;20128;-21
2021/12/24 05:25:42;;;;;;;29.42;17.00;;;0.60;71.70;;;;;;5014900;28;20109;-20
2021/12/24 05:28:08;;;;;;;22.05;12.00;;;0.50;71.40;;;;;;5015267;28;20022;-22
2021/12/24 05:30:34;;;;;;;15.32;8.43;;;0.50;71.50;;;;;;5014572;28;20040;-21
2021/12/24 05:33:00;;;;;;;14.57;6.97;;;0.50;71.20;;;;;;5014515;28;20112;-21
2021/12/24 05:35:26;;;;;;;21.88;12.02;;;0.50;71.10;;;;;;5014338;28;20037;-20
2021/12/24 05:37:52;;;;;;;14.00;7.40;;;0.50;71.20;;;;;;5014375;28;20034;-20
2021/12/24 05:40:18;;;;;;;15.25;7.78;;;0.40;71.10;;;;;;5012916;28;20034;-20
2021/12/24 05:42:44;;;;;;;21.70;11.43;;;0.40;71.10;;;;;;5014948;28;20351;-21
2021/12/24 05:45:10;;;;;;;50.67;28.63;;;0.40;71.10;;;;;;5013796;28;20085;-20
2021/12/24 05:47:37;;;;;;;22.55;12.77;;;0.40;71.60;;;;;;5014147;28;20109;-19
2021/12/24 05:50:05;;;;;;;18.08;8.93;;;0.40;71.30;;;;;;5014281;28;20014;-19
2021/12/24 05:52:33;;;;;;;19.73;10.45;;;0.30;71.50;;;;;;5013589;28;20641;-20
2021/12/24 05:55:00;;;;;;;26.73;13.93;;;0.30;71.40;;;;;;5014414;28;20175;-21
2021/12/24 05:57:27;;;;;;;18.92;9.98;;;0.30;71.50;;;;;;5014313;28;20474;-20
2021/12/24 05:59:54;;;;;;;43.50;22.15;;;0.40;71.60;;;;;;5013958;28;20034;-22
2021/12/24 06:02:20;;;;;;;30.73;16.73;;;0.40;71.70;;;;;;5013689;28;20025;-19
2021/12/24 06:04:46;;;;;;;59.15;30.63;;;0.40;72.00;;;;;;5014131;28;20056;-20
2021/12/24 06:07:12;;;;;;;28.27;14.90;;;0.50;72.20;;;;;;5013916;28;20482;-20
2021/12/24 06:09:38;;;;;;;34.25;18.85;;;0.50;72.30;;;;;;5012597;28;20034;-20
2021/12/24 06:12:04;;;;;;;43.80;23.08;;;0.60;72.10;;;;;;5013691;28;20029;-22
2021/12/24 06:14:31;;;;;;;20.95;10.77;;;0.60;72.30;;;;;;5012332;28;20441;-21
2021/12/24 06:17:09;;;;;;;18.20;8.82;;;0.60;72.30;;;;;;5014357;28;20026;-22
2021/12/24 06:19:35;;;;;;;22.50;12.10;;;0.60;71.90;;;;;;5013657;28;20504;-21
2021/12/24 06:22:01;;;;;;;19.73;10.93;;;0.60;71.70;;;;;;5013782;28;20025;-22
2021/12/24 06:24:27;;;;;;;25.35;14.18;;;0.70;71.90;;;;;;5013373;28;20030;-21
2021/12/24 06:26:54;;;;;;;30.83;18.15;;;0.70;72.10;;;;;;5013940;28;20104;-22
2021/12/24 06:29:21;;;;;;;36.13;17.27;;;0.70;71.90;;;;;;5013971;28;20485;-20
2021/12/24 06:31:48;;;;;;;27.42;15.25;;;0.70;72.10;;;;;;5013733;28;20057;-22
2021/12/24 06:34:14;;;;;;;46.22;25.77;;;0.70;71.90;;;;;;5013299;28;20040;-21
2021/12/24 06:36:43;;;;;;;38.35;21.58;;;0.70;71.80;;;;;;5012124;28;20018;-22
2021/12/24 06:39:10;;;;;;;18.42;9.40;;;0.70;71.90;;;;;;5013460;28;20026;-22
2021/12/24 06:41:37;;;;;;;19.92;10.48;;;0.60;71.60;;;;;;5013427;28;20022;-22
2021/12/24 06:44:04;;;;;;;21.65;12.20;;;0.60;71.80;;;;;;5013604;28;20032;-20
2021/12/24 06:46:31;;;;;;;24.67;11.30;;;0.60;71.60;;;;;;5013185;28;20026;-22
2021/12/24 06:48:57;;;;;;;19.52;10.23;;;0.60;71.60;;;;;;5013683;28;20026;-22
2021/12/24 06:51:24;;;;;;;13.23;6.30;;;0.60;71.70;;;;;;5013447;28;20028;-22
2021/12/24 06:53:50;;;;;;;35.50;18.50;;;0.60;71.50;;;;;;5013226;28;20046;-22
2021/12/24 06:56:16;;;;;;;22.42;13.30;;;0.60;71.60;;;;;;5015091;28;20041;-21
2021/12/24 06:58:41;;;;;;;38.55;20.42;;;0.70;71.70;;;;;;5017679;28;20389;-21
2021/12/24 07:01:08;;;;;;;16.40;8.82;;;0.70;71.80;;;;;;5017315;28;20018;-21
2021/12/24 07:03:34;;;;;;;13.32;7.13;;;0.70;72.00;;;;;;5017510;28;20041;-22
2021/12/24 07:06:00;;;;;;;32.40;18.50;;;0.70;71.60;;;;;;5017131;28;20044;-22
2021/12/24 07:08:26;;;;;;;15.93;8.48;;;0.70;71.70;;;;;;5017067;28;20029;-19
2021/12/24 07:10:52;;;;;;;28.10;14.43;;;0.80;71.60;;;;;;5017007;28;20039;-21
2021/12/24 07:13:18;;;;;;;35.20;17.50;;;0.80;72.70;;;;;;5017432;28;20072;-21
2021/12/24 07:15:44;;;;;;;45.30;24.48;;;0.80;72.90;;;;;;5017270;28;20481;-23
2021/12/24 07:18:10;;;;;;;26.27;14.02;;;0.80;73.40;;;;;;5017395;28;20034;-22
2021/12/24 07:20:36;;;;;;;29.83;16.00;;;0.80;73.20;;;;;;5016977;28;20500;-22
2021/12/24 07:23:02;;;;;;;48.20;23.70;;;0.80;73.90;;;;;;5016832;28;20026;-22
2021/12/24 07:25:28;;;;;;;46.33;22.75;;;0.80;73.30;;;;;;5015687;28;20022;-22
2021/12/24 07:27:54;;;;;;;31.65;17.38;;;0.80;73.90;;;;;;5016824;28;20036;-21
2021/12/24 07:30:21;;;;;;;38.03;19.83;;;0.80;73.60;;;;;;5017089;28;20026;-22
2021/12/24 07:32:48;;;;;;;28.08;14.77;;;0.90;74.00;;;;;;5016996;28;20121;-22
2021/12/24 07:35:14;;;;;;;34.40;16.67;;;0.90;73.80;;;;;;5017480;28;20116;-22
2021/12/24 07:37:42;;;;;;;42.58;24.83;;;1.00;73.60;;;;;;5016649;28;20026;-21
2021/12/24 07:40:10;;;;;;;45.90;26.00;;;1.10;73.60;;;;;;5016901;28;20081;-22
2021/12/24 07:42:37;;;;;;;32.90;17.55;;;1.20;73.60;;;;;;5016364;28;20030;-22
2021/12/24 07:45:05;;;;;;;32.67;18.15;;;1.20;73.60;;;;;;5016830;28;20034;-22
2021/12/24 07:47:36;;;;;;;34.80;19.38;;;1.30;73.40;;;;;;5016776;28;20102;-22
2021/12/24 07:50:18;;;;;;;38.35;20.67;;;1.40;73.30;;;;;;5016372;28;20033;-21
2021/12/24 07:52:45;;;;;;;38.10;20.67;;;1.50;73.80;;;;;;5016168;28;20049;-21
2021/12/24 07:55:11;;;;;;;36.72;19.45;;;1.50;74.00;;;;;;5016643;28;20054;-21
2021/12/24 07:57:38;;;;;;;32.20;16.80;;;1.60;73.70;;;;;;5016345;28;20033;-23
2021/12/24 08:00:07;;;;;;;27.05;15.68;;;1.70;73.30;;;;;;5016405;28;20513;-22
2021/12/24 08:02:33;;;;;;;27.33;13.70;;;1.70;73.10;;;;;;5016008;28;20053;-21
2021/12/24 08:04:59;;;;;;;32.67;16.55;;;1.80;72.90;;;;;;5016325;28;20026;-22
2021/12/24 08:07:27;;;;;;;16.60;8.38;;;1.80;72.60;;;;;;5015820;28;20119;-20
2021/12/24 08:09:53;;;;;;;46.72;24.77;;;1.90;72.40;;;;;;5016027;28;20022;-22
2021/12/24 08:12:20;;;;;;;40.35;20.95;;;1.90;72.70;;;;;;5015702;28;20040;-22
2021/12/24 08:14:47;;;;;;;28.17;14.68;;;2.00;72.60;;;;;;5016274;28;20034;-23
2021/12/24 08:17:13;;;;;;;44.50;21.50;;;2.10;72.40;;;;;;5016226;28;20041;-22
2021/12/24 08:19:40;;;;;;;43.58;21.02;;;2.10;72.40;;;;;;5015821;28;20054;-22
2021/12/24 08:22:07;;;;;;;43.08;25.30;;;2.20;72.60;;;;;;5015851;28;20026;-23
2021/12/24 08:24:33;;;;;;;25.90;13.73;;;2.40;72.30;;;;;;5014322;28;20033;-22
2021/12/24 08:26:59;;;;;;;30.77;16.25;;;2.50;72.10;;;;;;5015955;28;20037;-23
2021/12/24 08:29:25;;;;;;;40.55;22.73;;;2.60;71.90;;;;;;5014500;28;20080;-23
2021/12/24 08:31:52;;;;;;;38.95;21.52;;;2.70;72.10;;;;;;5015892;28;20030;-23
2021/12/24 08:34:20;;;;;;;36.35;18.88;;;2.80;72.00;;;;;;5015599;28;20037;-23
2021/12/24 08:36:48;;;;;;;35.60;19.17;;;2.80;71.90;;;;;;5015654;28;20030;-22
2021/12/24 08:39:16;;;;;;;25.83;13.45;;;2.90;71.70;;;;;;5015873;28;20022;-22
2021/12/24 08:41:43;;;;;;;18.42;9.35;;;3.00;71.40;;;;;;5015432;28;20026;-23
2021/12/24 08:44:09;;;;;;;22.77;12.38;;;3.10;71.20;;;;;;5016027;28;20022;-23
2021/12/24 08:46:36;;;;;;;25.58;14.63;;;3.10;71.00;;;;;;5015714;28;20037;-23
2021/12/24 08:49:04;;;;;;;30.27;16.17;;;3.30;70.80;;;;;;5015220;28;20550;-22
2021/12/24 08:51:33;;;;;;;31.45;15.77;;;3.30;70.60;;;;;;5015805;28;20026;-23
2021/12/24 08:53:59;;;;;;;23.00;12.40;;;3.30;70.50;;;;;;5015170;28;20046;-22
2021/12/24 08:56:25;;;;;;;21.50;10.68;;;3.40;70.60;;;;;;5014922;28;20063;-22
2021/12/24 08:58:51;;;;;;;22.63;11.18;;;3.40;70.50;;;;;;5015152;28;20034;-23
2021/12/24 09:01:17;;;;;;;19.48;10.40;;;3.50;70.30;;;;;;5015165;28;20032;-22
2021/12/24 09:03:43;;;;;;;23.17;12.88;;;3.60;70.10;;;;;;5015072;28;20030;-24
2021/12/24 09:06:09;;;;;;;32.40;15.82;;;3.60;70.10;;;;;;5014919;28;20036;-24
2021/12/24 09:08:35;;;;;;;34.88;17.85;;;3.70;70.10;;;;;;5014778;28;20034;-22
2021/12/24 09:11:03;;;;;;;32.80;16.60;;;3.80;70.00;;;;;;5015208;28;20034;-23
2021/12/24 09:13:29;;;;;;;24.55;13.13;;;3.80;69.90;;;;;;5015072;28;20437;-22
2021/12/24 09:15:55;;;;;;;30.05;16.42;;;3.90;70.10;;;;;;5014817;28;20079;-23
2021/12/24 09:18:21;;;;;;;38.50;21.42;;;3.90;69.90;;;;;;5014663;28;20022;-22
2021/12/24 09:20:48;;;;;;;41.88;22.70;;;4.00;70.00;;;;;;5013946;28;20018;-22
2021/12/24 09:23:15;;;;;;;31.20;16.10;;;4.10;70.10;;;;;;5014688;28;20026;-22
2021/12/24 09:25:42;;;;;;;40.90;19.88;;;4.10;69.80;;;;;;5014666;28;20112;-23
2021/12/24 09:28:09;;;;;;;29.30;16.73;;;4.20;69.70;;;;;;5014902;28;20109;-21
2021/12/24 09:30:36;;;;;;;24.35;12.07;;;4.20;69.40;;;;;;5014309;28;20041;-23
2021/12/24 09:33:04;;;;;;;28.20;14.50;;;4.30;69.30;;;;;;5014915;28;20052;-21
2021/12/24 09:35:30;;;;;;;30.67;16.80;;;4.40;69.20;;;;;;5014669;28;20033;-23
2021/12/24 09:37:58;;;;;;;32.60;17.45;;;4.40;69.10;;;;;;5013210;28;20030;-23
2021/12/24 09:40:25;;;;;;;26.65;14.02;;;4.40;68.90;;;;;;5014496;28;20026;-23
2021/12/24 09:42:51;;;;;;;23.40;12.32;;;4.50;68.90;;;;;;5014605;28;20026;-23
2021/12/24 09:45:19;;;;;;;23.05;12.60;;;4.50;68.90;;;;;;5013397;28;20060;-22
2021/12/24 09:47:46;;;;;;;18.10;8.93;;;4.60;68.90;;;;;;5014581;28;20029;-20
2021/12/24 09:50:17;;;;;;;20.38;11.57;;;4.60;68.90;;;;;;5013889;28;20034;-21
2021/12/24 09:52:49;;;;;;;25.00;12.77;;;4.70;68.90;;;;;;5014055;28;20062;-23
2021/12/24 09:55:21;;;;;;;25.98;13.93;;;4.70;68.90;;;;;;5014779;28;20038;-21
2021/12/24 09:57:48;;;;;;;34.35;20.40;;;4.80;68.70;;;;;;5014086;28;20018;-22
2021/12/24 10:00:17;;;;;;;31.17;17.80;;;4.80;68.80;;;;;;5014025;28;20105;-21
2021/12/24 10:02:47;;;;;;;37.75;20.02;;;4.90;68.80;;;;;;5014279;28;20064;-21
2021/12/24 10:05:32;;;;;;;40.92;22.02;;;4.90;68.70;;;;;;5014400;28;20030;-23
2021/12/24 10:07:59;;;;;;;26.30;14.40;;;4.90;68.60;;;;;;5013956;28;20034;-21
2021/12/24 10:10:28;;;;;;;45.08;25.27;;;4.90;68.80;;;;;;5013729;28;20095;-23
2021/12/24 10:12:55;;;;;;;31.90;16.55;;;4.90;68.80;;;;;;5014182;28;20030;-23
2021/12/24 10:15:21;;;;;;;36.97;21.05;;;5.00;68.90;;;;;;5013838;28;20108;-22
2021/12/24 10:17:47;;;;;;;39.85;21.95;;;5.10;68.80;;;;;;5014346;28;20046;-24
2021/12/24 10:20:20;;;;;;;34.85;21.38;;;5.20;68.70;;;;;;5013407;28;20086;-24
2021/12/24 10:22:54;;;;;;;44.92;24.27;;;5.20;68.50;;;;;;5013717;28;20033;-22
2021/12/24 10:25:29;;;;;;;37.78;22.38;;;5.30;68.10;;;;;;5013636;28;20030;-23
2021/12/24 10:27:56;;;;;;;36.88;21.30;;;5.40;68.00;;;;;;5014797;28;20076;-22
2021/12/24 10:30:27;;;;;;;27.23;15.43;;;5.50;68.00;;;;;;5013436;28;20026;-23
2021/12/24 10:32:56;;;;;;;31.33;18.45;;;5.50;67.80;;;;;;5013599;28;20030;-22
2021/12/24 10:35:25;;;;;;;46.47;27.13;;;5.60;67.50;;;;;;5013929;28;20021;-24
2021/12/24 10:38:12;;;;;;;36.42;22.17;;;5.60;67.40;;;;;;5013494;28;20026;-24
2021/12/24 10:41:05;;;;;;;46.60;28.55;;;5.70;67.60;;;;;;5013710;28;20034;-23
2021/12/24 10:43:36;;;;;;;45.20;26.98;;;5.70;67.60;;;;;;5013806;28;20026;-22
2021/12/24 10:46:20;;;;;;;43.83;23.33;;;5.80;67.70;;;;;;5012230;28;20497;-23
2021/12/24 10:49:06;;;;;;;35.33;19.05;;;5.80;67.60;;;;;;5013761;28;20109;-23
2021/12/24 10:51:59;;;;;;;63.95;35.53;;;5.90;67.60;;;;;;5012966;28;20084;-21
2021/12/24 10:54:26;;;;;;;53.70;28.23;;;5.90;67.60;;;;;;5013489;28;20092;-24
2021/12/24 10:56:54;;;;;;;48.97;28.08;;;5.90;67.40;;;;;;5013820;28;20018;-23
2021/12/24 10:59:44;;;;;;;53.08;29.80;;;5.90;67.30;;;;;;5013744;28;20033;-24
2021/12/24 11:02:12;;;;;;;51.97;30.52;;;5.90;67.10;;;;;;5013150;28;20022;-21
2021/12/24 11:04:38;;;;;;;30.00;18.15;;;6.00;67.30;;;;;;5013062;28;20409;-22
2021/12/24 11:07:38;;;;;;;38.70;22.63;;;6.00;67.20;;;;;;5012791;28;20105;-22
2021/12/24 11:10:12;;;;;;;27.83;17.80;;;6.10;67.00;;;;;;5011488;28;20030;-21
2021/12/24 11:12:43;;;;;;;30.63;17.80;;;6.20;67.10;;;;;;5013369;28;20033;-24
2021/12/24 11:15:22;;;;;;;41.35;24.63;;;6.40;66.90;;;;;;5013426;28;20033;-23
2021/12/24 11:17:50;;;;;;;35.25;22.13;;;6.60;66.30;;;;;;5013092;28;20022;-23
2021/12/24 11:20:16;;;;;;;37.92;24.00;;;6.70;66.20;;;;;;5013186;28;20120;-21
2021/12/24 11:22:59;;;;;;;30.92;19.15;;;6.90;65.90;;;;;;5012932;28;20537;-22
2021/12/24 11:25:28;;;;;;;32.50;21.17;;;7.00;65.70;;;;;;5013083;28;20030;-20
2021/12/24 11:27:54;;;;;;;36.00;22.77;;;7.20;65.20;;;;;;5013032;28;20038;-22
2021/12/24 11:30:22;;;;;;;35.88;22.40;;;7.20;64.80;;;;;;5013084;28;20037;-21
2021/12/24 11:32:49;;;;;;;28.77;17.88;;;7.30;64.70;;;;;;5012853;28;20032;-21
2021/12/24 11:35:16;;;;;;;33.55;20.98;;;7.40;64.80;;;;;;5013410;28;20022;-22
2021/12/24 11:37:44;;;;;;;24.38;17.10;;;7.40;64.70;;;;;;5013997;28;20100;-21
2021/12/24 11:40:16;;;;;;;29.60;18.23;;;7.50;65.00;;;;;;5013196;28;20034;-22
2021/12/24 11:42:47;;;;;;;39.15;23.30;;;7.50;64.70;;;;;;5013598;28;20367;-20
2021/12/24 11:45:12;;;;;;;33.42;22.30;;;7.60;63.90;;;;;;5017189;28;20362;-22
2021/12/24 11:47:39;;;;;;;32.05;18.92;;;7.60;64.00;;;;;;5017588;28;20030;-22
2021/12/24 11:50:06;;;;;;;22.52;14.52;;;7.60;63.60;;;;;;5016369;28;20409;-22
2021/12/24 11:52:33;;;;;;;26.38;18.02;;;7.60;64.00;;;;;;5015975;28;20093;-22
2021/12/24 11:54:59;;;;;;;39.38;24.35;;;7.70;64.20;;;;;;5016421;28;20117;-23
2021/12/24 11:57:26;;;;;;;22.77;14.98;;;7.70;63.40;;;;;;5016566;28;20420;-23
2021/12/24 11:59:52;;;;;;;32.30;19.88;;;7.70;63.50;;;;;;5016581;28;20025;-21
2021/12/24 12:02:35;;;;;;;20.13;12.88;;;7.70;63.60;;;;;;5016127;28;20022;-21
2021/12/24 12:05:11;;;;;;;23.33;14.33;;;7.70;64.10;;;;;;5016462;28;20026;-22
2021/12/24 12:07:38;;;;;;;28.17;17.95;;;7.80;64.40;;;;;;5016529;28;20030;-23
2021/12/24 12:10:05;;;;;;;21.77;14.65;;;7.80;64.10;;;;;;5016443;28;20049;-23
2021/12/24 12:12:42;;;;;;;31.73;20.30;;;7.90;64.20;;;;;;5015827;28;20021;-21
2021/12/24 12:15:31;;;;;;;26.63;16.63;;;7.90;64.00;;;;;;5015995;28;20026;-22
2021/12/24 12:17:58;;;;;;;29.40;18.80;;;7.90;64.10;;;;;;5016307;28;20026;-22
2021/12/24 12:20:48;;;;;;;25.55;15.23;;;7.90;63.70;;;;;;5015620;28;20448;-22
2021/12/24 12:24:56;;;;;;;24.15;15.18;;;7.90;63.70;;;;;;5016224;28;20030;-23
2021/12/24 12:26:43;;;;;;;17.58;11.40;;;7.90;63.70;;;;;;5015444;28;20111;-22
2021/12/24 12:29:21;;;;;;;23.42;14.52;;;7.90;64.10;;;;;;5015738;28;20037;-22
2021/12/24 12:32:01;;;;;;;25.30;16.45;;;7.90;64.30;;;;;;5014455;28;20040;-22
2021/12/24 12:34:39;;;;;;;16.80;11.38;;;7.90;64.40;;;;;;5015497;28;20041;-21
2021/12/24 12:37:40;;;;;;;29.05;18.40;;;7.90;64.40;;;;;;5015519;28;20034;-23
2021/12/24 12:40:28;;;;;;;20.45;12.80;;;7.90;64.20;;;;;;5015535;28;20026;-21
2021/12/24 12:42:57;;;;;;;30.27;18.95;;;8.00;63.90;;;;;;5015431;28;20034;-22
2021/12/24 12:45:44;;;;;;;19.10;11.80;;;8.00;63.80;;;;;;5015877;28;20366;-21
2021/12/24 12:48:12;;;;;;;14.70;10.13;;;8.10;64.10;;;;;;5013135;28;20061;-22
2021/12/24 12:50:49;;;;;;;30.92;20.10;;;8.10;64.40;;;;;;4996660;28;20099;-23
2021/12/24 12:53:36;;;;;;;26.23;17.50;;;8.10;64.20;;;;;;5012922;28;20426;-22
2021/12/24 12:56:16;;;;;;;30.27;18.88;;;8.20;64.10;;;;;;5013008;28;20562;-21
2021/12/24 12:58:46;;;;;;;38.35;22.75;;;8.20;63.60;;;;;;5013024;28;20113;-21
2021/12/24 13:01:18;;;;;;;31.48;20.25;;;8.20;63.70;;;;;;5013087;28;20084;-21
2021/12/24 13:04:00;;;;;;;19.48;12.35;;;8.30;63.70;;;;;;5012905;28;20022;-23
2021/12/24 13:06:47;;;;;;;27.13;16.85;;;8.30;63.40;;;;;;5012589;28;20117;-23
2021/12/24 13:09:16;;;;;;;42.67;25.52;;;8.20;63.40;;;;;;5012851;28;20462;-23
2021/12/24 13:11:50;;;;;;;33.88;20.92;;;8.20;62.90;;;;;;5012650;28;20073;-23
2021/12/24 13:14:17;;;;;;;28.73;18.37;;;8.20;63.00;;;;;;5012524;28;20091;-22
2021/12/24 13:17:05;;;;;;;33.72;21.00;;;8.20;63.10;;;;;;5012215;28;20065;-22
2021/12/24 13:22:28;;;;;;;45.88;27.13;;;8.20;63.50;;;;;;5012470;28;20128;-23
2021/12/24 13:25:02;;;;;;;43.75;26.60;;;8.20;63.30;;;;;;5013367;28;20034;-23
2021/12/24 13:27:39;;;;;;;32.83;20.38;;;8.20;62.80;;;;;;5014582;28;20032;-23
2021/12/24 13:30:17;;;;;;;29.75;19.58;;;8.20;63.00;;;;;;5014483;28;20022;-22
2021/12/24 13:32:51;;;;;;;35.70;21.98;;;8.20;63.20;;;;;;5014391;28;20082;-22
2021/12/24 13:35:29;;;;;;;42.25;23.65;;;8.20;63.20;;;;;;5014716;28;20053;-21
2021/12/24 13:37:56;;;;;;;37.15;21.67;;;8.10;62.90;;;;;;5014419;28;20034;-22
2021/12/24 13:40:28;;;;;;;42.60;24.75;;;8.10;62.80;;;;;;5014304;28;20034;-23
2021/12/24 13:42:57;;;;;;;37.45;23.65;;;8.10;63.00;;;;;;5014811;28;20050;-23
2021/12/24 13:45:25;;;;;;;45.33;25.58;;;8.00;63.30;;;;;;5014481;28;20369;-22
2021/12/24 13:48:00;;;;;;;43.97;23.17;;;8.00;63.10;;;;;;5014454;28;20026;-21
2021/12/24 13:56:05;;;;;;;27.58;16.42;;;7.90;63.70;;;;;;5014157;28;20103;-22
2021/12/24 13:58:32;;;;;;;29.45;16.90;;;7.90;64.10;;;;;;5014547;28;20034;-23
2021/12/24 14:01:01;;;;;;;27.02;16.38;;;7.90;64.10;;;;;;5013915;28;20465;-21
2021/12/24 14:03:31;;;;;;;15.80;9.52;;;7.90;64.20;;;;;;5014824;28;20533;-21
2021/12/24 14:06:00;;;;;;;19.08;11.48;;;7.90;64.40;;;;;;5013303;28;20029;-21
2021/12/24 14:08:29;;;;;;;19.27;11.65;;;7.90;64.40;;;;;;5014058;28;20026;-23
2021/12/24 14:11:11;;;;;;;35.42;20.65;;;7.90;64.50;;;;;;5013832;28;20453;-21
2021/12/24 14:13:44;;;;;;;23.85;13.00;;;7.90;64.10;;;;;;5014093;28;20069;-21
2021/12/24 14:16:17;;;;;;;18.10;10.93;;;8.00;64.30;;;;;;5013887;28;20389;-23
2021/12/24 14:18:49;;;;;;;15.10;8.63;;;7.90;64.40;;;;;;5013889;28;20489;-23
2021/12/24 14:24:17;;;;;;;30.48;18.30;;;8.00;64.50;;;;;;5014539;28;20359;-21
2021/12/24 14:26:47;;;;;;;26.85;16.42;;;8.00;64.50;;;;;;5014019;28;20470;-21
2021/12/24 14:29:23;;;;;;;34.80;19.65;;;8.00;64.50;;;;;;5013663;28;20490;-21
2021/12/24 14:32:13;;;;;;;47.03;27.85;;;8.00;64.50;;;;;;5013785;28;20030;-23
2021/12/24 14:34:47;;;;;;;30.90;19.23;;;8.00;64.50;;;;;;5013090;28;20034;-23
2021/12/24 14:37:27;;;;;;;37.03;20.92;;;8.00;64.50;;;;;;5013720;28;20040;-23
2021/12/24 14:40:07;;;;;;;29.90;16.88;;;7.90;64.60;;;;;;5013480;28;20383;-23
2021/12/24 14:42:36;;;;;;;32.92;19.50;;;7.90;64.70;;;;;;5013645;28;20037;-21
2021/12/24 14:45:41;;;;;;;41.53;25.67;;;7.90;64.60;;;;;;5013991;28;20021;-21
2021/12/24 14:48:27;;;;;;;42.63;26.15;;;7.90;64.70;;;;;;5013331;28;20069;-23
2021/12/24 14:51:08;;;;;;;35.72;19.70;;;7.90;64.70;;;;;;5013535;28;20120;-21
2021/12/24 14:53:38;;;;;;;24.85;15.73;;;7.90;64.80;;;;;;5013276;28;20049;-21
2021/12/24 14:56:15;;;;;;;42.28;24.60;;;7.90;64.90;;;;;;5013317;28;20030;-21
2021/12/24 14:58:48;;;;;;;35.15;22.40;;;7.80;64.90;;;;;;5013650;28;20113;-23
2021/12/24 15:01:19;;;;;;;28.40;17.27;;;7.80;64.90;;;;;;5013330;28;20486;-22
2021/12/24 15:03:56;;;;;;;34.80;20.55;;;7.80;65.00;;;;;;5013436;28;20063;-22
2021/12/24 15:06:25;;;;;;;34.40;21.00;;;7.80;65.10;;;;;;5013096;28;20462;-20
2021/12/24 15:08:53;;;;;;;32.97;19.83;;;7.70;65.20;;;;;;5013856;28;20386;-23
2021/12/24 15:11:21;;;;;;;39.00;22.90;;;7.70;65.30;;;;;;5013466;28;20030;-23
2021/12/24 15:14:09;;;;;;;34.70;20.25;;;7.70;65.30;;;;;;5013134;28;20054;-23